createdAt,value
2018-05-26T00:02:06.884Z,13.07
2018-05-26T00:04:34.466Z,13.10
2018-05-26T00:07:02.038Z,13.97
2018-05-26T00:09:29.681Z,14.63
2018-05-26T00:11:57.355Z,14.43
2018-05-26T00:14:24.952Z,14.70
2018-05-26T00:16:53.281Z,13.63
2018-05-26T00:19:20.958Z,15.70
2018-05-26T00:21:48.524Z,15.70
2018-05-26T00:24:16.084Z,17.03
2018-05-26T00:26:43.790Z,16.10
2018-05-26T00:29:11.365Z,16.87
2018-05-26T00:31:38.939Z,16.10
2018-05-26T00:34:06.507Z,16.53
2018-05-26T00:36:34.243Z,16.90
2018-05-26T00:39:01.823Z,16.53
2018-05-26T00:41:29.484Z,17.57
2018-05-26T00:43:57.053Z,16.93
2018-05-26T00:46:24.634Z,18.60
2018-05-26T00:48:52.360Z,16.20
2018-05-26T00:51:21.755Z,18.37
2018-05-26T00:53:49.335Z,15.77
2018-05-26T00:56:17.045Z,15.63
2018-05-26T00:58:44.636Z,13.47
2018-05-26T01:01:12.177Z,12.13
2018-05-26T01:03:39.743Z,15.30
2018-05-26T01:06:07.533Z,13.40
2018-05-26T01:08:35.298Z,13.20
2018-05-26T01:11:02.904Z,15.53
2018-05-26T01:13:30.565Z,17.30
2018-05-26T01:15:58.905Z,14.73
2018-05-26T01:18:26.472Z,15.93
2018-05-26T01:20:54.043Z,20.23
2018-05-26T01:23:21.800Z,17.20
2018-05-26T01:25:49.385Z,20.33
2018-05-26T01:28:16.948Z,17.33
2018-05-26T01:30:45.290Z,17.43
2018-05-26T01:33:12.848Z,15.07
2018-05-26T01:35:40.428Z,14.20
2018-05-26T01:38:07.976Z,15.53
2018-05-26T01:40:35.715Z,14.90
2018-05-26T01:43:03.295Z,18.07
2018-05-26T01:45:30.908Z,19.27
2018-05-26T01:47:58.551Z,17.93
2018-05-26T01:50:26.092Z,18.10
2018-05-26T01:52:53.936Z,17.27
2018-05-26T01:55:21.623Z,18.73
2018-05-26T01:57:49.444Z,20.00
2018-05-26T02:00:17.014Z,17.50
2018-05-26T02:02:44.608Z,18.27
2018-05-26T02:05:12.168Z,19.93
2018-05-26T02:07:40.493Z,18.37
2018-05-26T02:10:08.275Z,19.57
2018-05-26T02:12:35.831Z,18.07
2018-05-26T02:15:03.408Z,17.30
2018-05-26T02:17:30.988Z,16.87
2018-05-26T02:19:58.579Z,18.57
2018-05-26T02:22:26.457Z,18.67
2018-05-26T02:24:54.037Z,15.70
2018-05-26T02:27:21.599Z,16.27
2018-05-26T02:29:49.196Z,15.50
2018-05-26T02:32:18.259Z,18.13
2018-05-26T02:34:45.829Z,19.00
2018-05-26T02:37:13.408Z,18.53
2018-05-26T02:39:40.973Z,17.43
2018-05-26T02:42:09.277Z,17.23
2018-05-26T02:44:36.831Z,16.23
2018-05-26T02:47:04.492Z,17.80
2018-05-26T02:49:32.079Z,17.33
2018-05-26T02:51:59.732Z,16.80
2018-05-26T02:54:27.305Z,18.77
2018-05-26T02:56:54.877Z,16.27
2018-05-26T02:59:22.429Z,16.87
2018-05-26T03:01:50.001Z,18.17
2018-05-26T03:04:23.104Z,17.37
2018-05-26T03:06:56.162Z,16.83
2018-05-26T03:09:29.373Z,15.63
2018-05-26T03:12:02.613Z,16.33
2018-05-26T03:14:35.648Z,17.27
2018-05-26T03:17:03.247Z,15.70
2018-05-26T03:19:30.829Z,16.50
2018-05-26T03:21:58.404Z,19.67
2018-05-26T03:24:25.992Z,15.30
2018-05-26T03:26:53.717Z,17.70
2018-05-26T03:29:21.300Z,17.40
2018-05-26T03:31:48.865Z,17.07
2018-05-26T03:34:16.427Z,18.13
2018-05-26T03:36:43.975Z,15.20
2018-05-26T03:39:11.552Z,14.83
2018-05-26T03:41:39.271Z,16.17
2018-05-26T03:44:06.984Z,17.17
2018-05-26T03:46:34.562Z,14.60
2018-05-26T03:49:02.163Z,16.63
2018-05-26T03:51:29.750Z,15.80
2018-05-26T03:53:57.363Z,14.03
2018-05-26T03:56:36.704Z,13.40
2018-05-26T03:59:16.101Z,17.67
2018-05-26T04:01:43.808Z,13.97
2018-05-26T04:04:11.371Z,13.40
2018-05-26T04:06:38.961Z,16.47
2018-05-26T04:09:06.511Z,13.77
2018-05-26T04:11:34.125Z,13.97
2018-05-26T04:14:01.710Z,13.67
2018-05-26T04:16:29.272Z,16.47
2018-05-26T04:18:56.842Z,13.70
2018-05-26T04:21:24.388Z,13.90
2018-05-26T04:23:51.992Z,14.67
2018-05-26T04:26:19.540Z,13.77
2018-05-26T04:28:47.151Z,13.47
2018-05-26T04:31:14.713Z,12.47
2018-05-26T04:33:42.279Z,12.77
2018-05-26T04:36:09.855Z,12.53
2018-05-26T04:38:37.469Z,12.80
2018-05-26T04:41:05.985Z,12.13
2018-05-26T04:43:33.560Z,14.90
2018-05-26T04:46:01.201Z,14.07
2018-05-26T04:48:28.805Z,13.97
2018-05-26T04:50:57.139Z,12.47
2018-05-26T04:53:24.714Z,12.30
2018-05-26T04:55:52.557Z,11.57
2018-05-26T04:58:20.128Z,11.83
2018-05-26T05:00:47.888Z,12.43
2018-05-26T05:03:15.597Z,11.83
2018-05-26T05:05:43.262Z,12.67
2018-05-26T05:08:10.808Z,13.20
2018-05-26T05:10:38.385Z,13.20
2018-05-26T05:13:05.970Z,15.50
2018-05-26T05:15:33.528Z,12.93
2018-05-26T05:18:01.106Z,13.93
2018-05-26T05:20:28.693Z,15.17
2018-05-26T05:22:56.286Z,14.10
2018-05-26T05:25:23.845Z,13.63
2018-05-26T05:27:51.473Z,13.13
2018-05-26T05:30:19.017Z,14.70
2018-05-26T05:32:46.596Z,14.47
2018-05-26T05:35:14.972Z,14.43
2018-05-26T05:37:42.542Z,14.03
2018-05-26T05:40:10.119Z,15.20
2018-05-26T05:42:37.724Z,14.23
2018-05-26T05:45:05.258Z,13.57
2018-05-26T05:47:32.861Z,14.60
2018-05-26T05:50:00.656Z,15.13
2018-05-26T05:52:28.213Z,14.27
2018-05-26T05:54:56.016Z,13.83
2018-05-26T05:57:23.589Z,15.27
2018-05-26T05:59:51.165Z,14.80
2018-05-26T06:02:18.962Z,13.50
2018-05-26T06:04:46.564Z,12.93
2018-05-26T06:07:14.115Z,12.20
2018-05-26T06:09:41.712Z,13.03
2018-05-26T06:12:09.262Z,13.47
2018-05-26T06:14:37.012Z,12.77
2018-05-26T06:17:04.600Z,12.37
2018-05-26T06:19:32.176Z,11.17
2018-05-26T06:21:59.813Z,16.03
2018-05-26T06:24:27.388Z,13.60
2018-05-26T06:26:54.952Z,12.33
2018-05-26T06:29:22.520Z,13.13
2018-05-26T06:31:50.168Z,12.77
2018-05-26T06:34:17.691Z,12.67
2018-05-26T06:36:45.428Z,12.83
2018-05-26T06:39:13.754Z,13.23
2018-05-26T06:41:41.319Z,12.27
2018-05-26T06:44:09.157Z,11.40
2018-05-26T06:46:36.745Z,11.57
2018-05-26T06:49:04.320Z,11.90
2018-05-26T06:51:31.947Z,9.30
2018-05-26T06:53:59.508Z,12.07
2018-05-26T06:56:27.092Z,9.17
2018-05-26T06:58:54.671Z,8.90
2018-05-26T07:01:22.237Z,9.03
2018-05-26T07:03:50.594Z,9.57
2018-05-26T07:06:18.152Z,9.30
2018-05-26T07:08:45.895Z,8.50
2018-05-26T07:11:13.544Z,9.27
2018-05-26T07:13:41.296Z,8.17
2018-05-26T07:16:08.855Z,7.93
2018-05-26T07:18:36.435Z,11.27
2018-05-26T07:21:04.178Z,7.97
2018-05-26T07:23:31.945Z,6.60
2018-05-26T07:25:59.529Z,7.50
2018-05-26T07:28:27.527Z,12.83
2018-05-26T07:30:56.145Z,6.80
2018-05-26T07:33:23.720Z,6.20
2018-05-26T07:35:51.309Z,6.87
2018-05-26T07:38:18.900Z,5.90
2018-05-26T07:40:46.444Z,9.03
2018-05-26T07:43:14.014Z,5.77
2018-05-26T07:45:41.604Z,6.33
2018-05-26T07:48:09.180Z,5.63
2018-05-26T07:50:36.748Z,7.60
2018-05-26T07:53:04.348Z,7.07
2018-05-26T07:55:31.888Z,5.80
2018-05-26T07:57:59.438Z,6.67
2018-05-26T08:00:27.272Z,10.83
2018-05-26T08:02:54.824Z,5.77
2018-05-26T08:05:22.473Z,7.50
2018-05-26T08:07:49.981Z,5.13
2018-05-26T08:10:17.653Z,6.80
2018-05-26T08:12:45.225Z,5.57
2018-05-26T08:15:13.060Z,10.30
2018-05-26T08:17:40.636Z,6.60
2018-05-26T08:20:08.243Z,5.83
2018-05-26T08:22:35.879Z,4.50
2018-05-26T08:25:04.415Z,5.97
2018-05-26T08:27:32.251Z,4.67
2018-05-26T08:30:00.053Z,4.80
2018-05-26T08:32:27.660Z,3.63
2018-05-26T08:34:55.261Z,5.80
2018-05-26T08:37:23.022Z,5.33
2018-05-26T08:39:50.588Z,4.53
2018-05-26T08:42:18.185Z,6.33
2018-05-26T08:44:45.774Z,5.13
2018-05-26T08:47:13.380Z,3.73
2018-05-26T08:49:42.173Z,4.10
2018-05-26T08:52:09.764Z,5.23
2018-05-26T08:54:37.316Z,3.93
2018-05-26T08:57:05.136Z,4.00
2018-05-26T08:59:32.707Z,7.10
2018-05-26T09:02:00.280Z,5.27
2018-05-26T09:04:27.867Z,5.00
2018-05-26T09:06:56.203Z,5.50
2018-05-26T09:09:23.769Z,3.90
2018-05-26T09:11:51.354Z,4.27
2018-05-26T09:14:18.919Z,3.63
2018-05-26T09:16:46.491Z,7.55
2018-05-26T09:19:14.290Z,7.57
2018-05-26T09:21:41.872Z,4.43
2018-05-26T09:24:09.552Z,3.42
2018-05-26T09:26:37.130Z,3.65
2018-05-26T09:29:04.748Z,3.50
2018-05-26T09:31:32.342Z,4.60
2018-05-26T09:34:00.733Z,3.62
2018-05-26T09:36:28.288Z,3.87
2018-05-26T09:38:55.938Z,5.62
2018-05-26T09:41:24.318Z,6.10
2018-05-26T09:43:51.905Z,6.70
2018-05-26T09:46:19.491Z,4.20
2018-05-26T09:48:47.299Z,4.85
2018-05-26T09:51:14.890Z,3.83
2018-05-26T09:53:42.479Z,3.50
2018-05-26T09:56:10.064Z,7.93
2018-05-26T09:58:37.635Z,4.43
2018-05-26T10:01:05.244Z,5.75
2018-05-26T10:03:33.662Z,4.68
2018-05-26T10:06:01.397Z,4.30
2018-05-26T10:08:29.028Z,4.00
2018-05-26T10:10:56.795Z,4.25
2018-05-26T10:13:25.151Z,3.25
2018-05-26T10:15:52.760Z,3.85
2018-05-26T10:18:20.324Z,3.72
2018-05-26T10:20:47.893Z,3.58
2018-05-26T10:23:15.493Z,5.05
2018-05-26T10:25:43.054Z,3.12
2018-05-26T10:28:10.677Z,4.62
2018-05-26T10:30:38.277Z,4.87
2018-05-26T10:33:05.871Z,2.62
2018-05-26T10:35:33.531Z,4.70
2018-05-26T10:38:01.081Z,2.87
2018-05-26T10:40:29.407Z,3.20
2018-05-26T10:42:57.162Z,3.42
2018-05-26T10:45:36.585Z,7.97
2018-05-26T10:48:04.146Z,7.47
2018-05-26T10:50:31.737Z,5.00
2018-05-26T10:53:00.869Z,3.15
2018-05-26T10:55:28.491Z,3.67
2018-05-26T10:57:56.059Z,5.05
2018-05-26T11:00:23.654Z,2.87
2018-05-26T11:02:51.228Z,3.45
2018-05-26T11:05:18.774Z,4.93
2018-05-26T11:07:46.351Z,5.35
2018-05-26T11:10:13.917Z,3.90
2018-05-26T11:12:41.663Z,4.75
2018-05-26T11:15:09.242Z,5.20
2018-05-26T11:17:36.829Z,6.93
2018-05-26T11:20:04.404Z,4.28
2018-05-26T11:22:32.018Z,6.57
2018-05-26T11:24:59.786Z,4.03
2018-05-26T11:27:27.438Z,3.17
2018-05-26T11:29:55.091Z,3.22
2018-05-26T11:32:23.454Z,4.53
2018-05-26T11:34:51.016Z,4.15
2018-05-26T11:37:19.688Z,7.10
2018-05-26T11:39:47.241Z,6.05
2018-05-26T11:42:15.615Z,3.60
2018-05-26T11:44:44.048Z,5.25
2018-05-26T11:47:11.619Z,4.35
2018-05-26T11:49:39.207Z,3.05
2018-05-26T11:52:06.761Z,4.20
2018-05-26T11:54:34.480Z,6.35
2018-05-26T11:57:02.049Z,4.97
2018-05-26T11:59:29.909Z,3.15
2018-05-26T12:01:57.534Z,4.43
2018-05-26T12:04:25.138Z,2.60
2018-05-26T12:06:52.705Z,3.45
2018-05-26T12:09:20.324Z,2.90
2018-05-26T12:11:48.656Z,2.12
2018-05-26T12:14:16.452Z,7.75
2018-05-26T12:16:44.796Z,3.33
2018-05-26T12:19:12.373Z,4.65
2018-05-26T12:21:40.033Z,3.75
2018-05-26T12:24:07.629Z,2.60
2018-05-26T12:26:35.388Z,2.47
2018-05-26T12:29:03.764Z,2.83
2018-05-26T12:31:31.370Z,3.33
2018-05-26T12:33:59.193Z,3.70
2018-05-26T12:36:27.792Z,2.33
2018-05-26T12:38:55.366Z,4.12
2018-05-26T12:41:22.980Z,4.43
2018-05-26T12:43:51.355Z,3.67
2018-05-26T12:46:18.956Z,4.97
2018-05-26T12:48:46.541Z,3.58
2018-05-26T12:51:14.171Z,2.60
2018-05-26T12:53:44.942Z,4.95
2018-05-26T12:56:12.579Z,4.00
2018-05-26T12:58:40.169Z,3.58
2018-05-26T13:01:07.757Z,3.20
2018-05-26T13:03:35.461Z,2.67
2018-05-26T13:06:03.035Z,2.35
2018-05-26T13:08:30.646Z,2.53
2018-05-26T13:10:58.971Z,4.32
2018-05-26T13:13:26.596Z,4.10
2018-05-26T13:15:54.274Z,2.05
2018-05-26T13:18:22.049Z,4.35
2018-05-26T13:20:50.430Z,4.20
2018-05-26T13:23:17.992Z,5.47
2018-05-26T13:25:45.863Z,2.97
2018-05-26T13:28:13.429Z,2.70
2018-05-26T13:30:41.024Z,3.42
2018-05-26T13:33:08.574Z,2.00
2018-05-26T13:35:36.190Z,6.18
2018-05-26T13:38:03.816Z,3.55
2018-05-26T13:40:32.207Z,4.25
2018-05-26T13:42:59.897Z,2.78
2018-05-26T13:45:27.519Z,3.05
2018-05-26T13:47:55.108Z,3.67
2018-05-26T13:50:22.700Z,2.90
2018-05-26T13:52:50.260Z,3.25
2018-05-26T13:55:18.669Z,2.35
2018-05-26T13:57:46.236Z,4.87
2018-05-26T14:00:14.059Z,5.57
2018-05-26T14:02:41.746Z,2.75
2018-05-26T14:05:10.847Z,2.40
2018-05-26T14:07:38.586Z,2.60
2018-05-26T14:10:06.299Z,2.67
2018-05-26T14:12:34.196Z,3.15
2018-05-26T14:15:01.800Z,2.53
2018-05-26T14:17:29.405Z,2.83
2018-05-26T14:19:57.132Z,2.80
2018-05-26T14:22:25.532Z,3.17
2018-05-26T14:24:53.134Z,5.62
2018-05-26T14:27:20.710Z,2.87
2018-05-26T14:29:48.272Z,6.10
2018-05-26T14:32:17.397Z,3.10
2018-05-26T14:34:44.948Z,4.00
2018-05-26T14:37:13.309Z,2.85
2018-05-26T14:39:41.033Z,4.50
2018-05-26T14:42:08.627Z,2.60
2018-05-26T14:44:36.188Z,3.95
2018-05-26T14:47:03.736Z,4.22
2018-05-26T14:49:31.469Z,2.60
2018-05-26T14:51:59.186Z,5.00
2018-05-26T14:54:26.772Z,5.78
2018-05-26T14:56:54.595Z,2.83
2018-05-26T14:59:22.203Z,3.40
2018-05-26T15:01:49.792Z,3.60
2018-05-26T15:04:17.375Z,3.15
2018-05-26T15:06:45.031Z,4.47
2018-05-26T15:09:12.761Z,3.53
2018-05-26T15:11:40.624Z,2.95
2018-05-26T15:14:08.268Z,2.95
2018-05-26T15:16:36.071Z,4.28
2018-05-26T15:19:03.659Z,4.37
2018-05-26T15:21:31.227Z,3.42
2018-05-26T15:23:58.799Z,3.08
2018-05-26T15:26:27.424Z,4.65
2018-05-26T15:28:54.997Z,4.57
2018-05-26T15:31:22.590Z,3.10
2018-05-26T15:33:50.164Z,4.82
2018-05-26T15:36:17.858Z,3.25
2018-05-26T15:38:45.490Z,3.67
2018-05-26T15:41:13.101Z,3.05
2018-05-26T15:43:40.730Z,2.70
2018-05-26T15:46:08.332Z,4.05
2018-05-26T15:48:35.908Z,3.30
2018-05-26T15:51:03.483Z,4.60
2018-05-26T15:53:31.237Z,3.28
2018-05-26T15:55:58.832Z,5.55
2018-05-26T15:58:26.421Z,3.62
2018-05-26T16:00:53.989Z,3.65
2018-05-26T16:03:21.563Z,4.12
2018-05-26T16:05:49.127Z,3.37
2018-05-26T16:08:16.698Z,2.87
2018-05-26T16:10:44.308Z,4.20
2018-05-26T16:13:11.973Z,3.50
2018-05-26T16:15:39.612Z,7.32
2018-05-26T16:18:07.168Z,4.25
2018-05-26T16:20:34.848Z,6.40
2018-05-26T16:23:02.425Z,3.03
2018-05-26T16:25:30.099Z,6.60
2018-05-26T16:27:57.773Z,5.68
2018-05-26T16:30:25.396Z,3.80
2018-05-26T16:32:52.963Z,4.65
2018-05-26T16:35:20.710Z,4.25
2018-05-26T16:37:48.255Z,4.70
2018-05-26T16:40:15.863Z,5.55
2018-05-26T16:42:43.532Z,5.22
2018-05-26T16:45:11.116Z,4.72
2018-05-26T16:47:38.684Z,4.25
2018-05-26T16:50:06.292Z,3.80
2018-05-26T16:52:34.172Z,3.92
2018-05-26T16:55:01.743Z,5.22
2018-05-26T16:57:29.355Z,4.45
2018-05-26T16:59:57.228Z,6.95
2018-05-26T17:02:24.844Z,4.32
2018-05-26T17:04:52.403Z,3.55
2018-05-26T17:07:20.025Z,3.60
2018-05-26T17:09:47.637Z,6.93
2018-05-26T17:12:15.247Z,6.12
2018-05-26T17:14:42.842Z,4.40
2018-05-26T17:17:10.429Z,5.07
2018-05-26T17:19:37.980Z,4.45
2018-05-26T17:22:06.450Z,5.18
2018-05-26T17:24:34.460Z,4.07
2018-05-26T17:27:02.047Z,5.60
2018-05-26T17:29:29.624Z,6.50
2018-05-26T17:31:57.219Z,4.30
2018-05-26T17:34:24.976Z,4.00
2018-05-26T17:36:53.325Z,6.45
2018-05-26T17:39:20.924Z,3.67
2018-05-26T17:41:49.257Z,4.12
2018-05-26T17:44:16.853Z,5.05
2018-05-26T17:46:44.858Z,5.28
2018-05-26T17:49:13.348Z,4.70
2018-05-26T17:51:40.929Z,3.97
2018-05-26T17:54:08.538Z,5.22
2018-05-26T17:56:39.076Z,4.28
2018-05-26T17:59:06.669Z,3.90
2018-05-26T18:01:34.244Z,5.53
2018-05-26T18:04:01.811Z,5.37
2018-05-26T18:06:29.400Z,5.60
2018-05-26T18:08:56.981Z,3.85
2018-05-26T18:11:24.669Z,6.07
2018-05-26T18:13:52.302Z,5.57
2018-05-26T18:16:19.908Z,3.92
2018-05-26T18:18:47.495Z,4.93
2018-05-26T18:21:15.852Z,4.22
2018-05-26T18:23:43.455Z,5.22
2018-05-26T18:26:11.037Z,4.97
2018-05-26T18:28:38.770Z,4.00
2018-05-26T18:31:07.221Z,4.93
2018-05-26T18:33:34.871Z,4.60
2018-05-26T18:36:02.477Z,4.10
2018-05-26T18:38:30.105Z,4.10
2018-05-26T18:40:57.670Z,4.97
2018-05-26T18:43:25.272Z,6.43
2018-05-26T18:45:52.835Z,4.37
2018-05-26T18:48:20.442Z,6.90
2018-05-26T18:50:47.997Z,5.80
2018-05-26T18:53:15.592Z,4.37
2018-05-26T18:55:43.225Z,7.97
2018-05-26T18:58:10.832Z,7.60
2018-05-26T19:00:38.534Z,4.60
2018-05-26T19:03:06.108Z,7.87
2018-05-26T19:05:34.706Z,6.60
2018-05-26T19:08:03.184Z,4.97
2018-05-26T19:10:31.587Z,5.97
2018-05-26T19:12:59.135Z,8.20
2018-05-26T19:15:27.474Z,7.33
2018-05-26T19:17:55.240Z,6.90
2018-05-26T19:20:22.872Z,10.83
2018-05-26T19:22:51.750Z,6.50
2018-05-26T19:25:19.356Z,6.37
2018-05-26T19:27:46.966Z,7.20
2018-05-26T19:30:14.561Z,7.60
2018-05-26T19:32:42.139Z,9.17
2018-05-26T19:35:09.729Z,8.60
2018-05-26T19:37:38.095Z,8.57
2018-05-26T19:40:05.793Z,6.93
2018-05-26T19:42:33.411Z,5.97
2018-05-26T19:45:01.189Z,9.77
2018-05-26T19:47:29.607Z,7.43
2018-05-26T19:49:57.279Z,5.60
2018-05-26T19:52:24.778Z,5.83
2018-05-26T19:54:53.425Z,7.90
2018-05-26T19:57:21.016Z,7.13
2018-05-26T19:59:48.724Z,7.07
2018-05-26T20:02:16.296Z,10.37
2018-05-26T20:04:44.085Z,8.70
2018-05-26T20:07:11.694Z,6.70
2018-05-26T20:09:39.262Z,6.87
2018-05-26T20:12:06.893Z,8.97
2018-05-26T20:14:35.513Z,7.57
2018-05-26T20:17:03.131Z,7.90
2018-05-26T20:19:31.537Z,8.60
2018-05-26T20:22:00.031Z,11.67
2018-05-26T20:24:28.497Z,10.30
2018-05-26T20:26:56.903Z,10.77
2018-05-26T20:29:24.485Z,9.17
2018-05-26T20:31:52.042Z,9.03
2018-05-26T20:34:19.675Z,8.73
2018-05-26T20:36:47.278Z,8.87
2018-05-26T20:39:16.396Z,14.27
2018-05-26T20:41:43.972Z,10.83
2018-05-26T20:44:11.568Z,8.73
2018-05-26T20:46:39.151Z,8.70
2018-05-26T20:49:06.872Z,9.93
2018-05-26T20:51:34.533Z,8.50
2018-05-26T20:54:02.338Z,11.50
2018-05-26T20:56:29.902Z,9.40
2018-05-26T20:58:57.581Z,9.17
2018-05-26T21:01:25.215Z,11.93
2018-05-26T21:03:52.787Z,13.73
2018-05-26T21:06:20.454Z,10.60
2018-05-26T21:08:48.057Z,8.37
2018-05-26T21:11:15.672Z,8.90
2018-05-26T21:13:43.257Z,15.77
2018-05-26T21:16:10.859Z,10.57
2018-05-26T21:18:38.428Z,9.47
2018-05-26T21:21:06.059Z,9.80
2018-05-26T21:23:33.647Z,11.43
2018-05-26T21:26:01.257Z,10.60
2018-05-26T21:28:29.600Z,11.97
2018-05-26T21:30:57.347Z,13.27
2018-05-26T21:33:25.009Z,11.53
2018-05-26T21:35:52.623Z,16.00
2018-05-26T21:38:20.227Z,12.57
2018-05-26T21:40:47.870Z,11.93
2018-05-26T21:43:15.832Z,11.57
2018-05-26T21:45:43.559Z,13.57
2018-05-26T21:48:11.329Z,12.47
2018-05-26T21:50:38.928Z,11.20
2018-05-26T21:53:06.880Z,13.37
2018-05-26T21:55:34.457Z,13.57
2018-05-26T21:58:02.114Z,13.30
2018-05-26T22:00:29.678Z,10.00
2018-05-26T22:02:57.279Z,10.33
2018-05-26T22:05:25.066Z,10.13
2018-05-26T22:07:53.401Z,8.70
2018-05-26T22:10:22.311Z,12.33
2018-05-26T22:12:51.516Z,9.67
2018-05-26T22:15:19.098Z,12.57
2018-05-26T22:17:46.991Z,10.40
2018-05-26T22:20:14.657Z,10.77
2018-05-26T22:22:42.291Z,10.20
2018-05-26T22:25:09.902Z,9.57
2018-05-26T22:27:37.453Z,11.97
2018-05-26T22:30:05.059Z,9.27
2018-05-26T22:32:32.623Z,8.97
2018-05-26T22:35:00.984Z,13.80
2018-05-26T22:37:28.573Z,14.10
2018-05-26T22:39:56.954Z,11.60
2018-05-26T22:42:24.648Z,11.83
2018-05-26T22:44:52.241Z,13.37
2018-05-26T22:47:20.601Z,13.60
2018-05-26T22:49:48.182Z,11.73
2018-05-26T22:52:15.836Z,11.40
2018-05-26T22:54:43.397Z,13.30
2018-05-26T22:57:11.007Z,12.43
2018-05-26T22:59:38.649Z,11.70
2018-05-26T23:02:06.251Z,12.73
2018-05-26T23:04:33.840Z,19.13
2018-05-26T23:07:01.499Z,12.20
2018-05-26T23:09:29.011Z,15.87
2018-05-26T23:11:56.842Z,15.50
2018-05-26T23:14:25.187Z,13.60
2018-05-26T23:16:53.068Z,14.00
2018-05-26T23:19:20.615Z,14.23
2018-05-26T23:21:48.352Z,13.23
2018-05-26T23:24:16.010Z,12.73
2018-05-26T23:26:44.422Z,13.43
2018-05-26T23:29:12.041Z,12.77
2018-05-26T23:31:39.604Z,16.23
2018-05-26T23:34:07.223Z,13.10
2018-05-26T23:36:34.801Z,15.33
2018-05-26T23:39:02.381Z,16.57
2018-05-26T23:41:29.912Z,17.63
2018-05-26T23:43:58.370Z,18.47
2018-05-26T23:46:26.015Z,15.77
2018-05-26T23:48:53.644Z,14.53
2018-05-26T23:51:21.205Z,16.87
2018-05-26T23:53:48.775Z,13.87
2018-05-26T23:56:16.327Z,13.93
2018-05-26T23:58:43.958Z,12.80
